TimeEDT,TemperatureF,Dew PointF,Humidity,Sea Level PressureIn,VisibilityMPH,Wind Direction,Wind SpeedMPH,Gust SpeedMPH,PrecipitationIn,Events,Conditions,WindDirDegrees,DateUTC
12:15 AM,47.3,33.8,59,30.23,10.0,NNE,5.8,-,N/A,,Scattered Clouds,20,2013-04-17 04:15:00
12:34 AM,46.9,33.3,59,30.23,10.0,NNE,4.6,-,N/A,,Clear,20,2013-04-17 04:34:00
12:55 AM,46.4,33.3,60,30.23,10.0,North,4.6,-,N/A,,Clear,10,2013-04-17 04:55:00
1:15 AM,45.7,33.8,63,30.23,10.0,NNE,3.5,-,N/A,,Clear,20,2013-04-17 05:15:00
1:35 AM,45.0,34.3,66,30.25,10.0,NNE,4.6,-,N/A,,Clear,20,2013-04-17 05:35:00
1:55 AM,45.0,35.8,70,30.26,10.0,NE,6.9,-,N/A,,Mostly Cloudy,40,2013-04-17 05:55:00
2:14 AM,44.2,35.2,71,30.27,10.0,ENE,11.5,-,N/A,,Overcast,60,2013-04-17 06:14:00
2:35 AM,43.3,34.3,71,30.28,10.0,NE,8.1,-,N/A,,Overcast,50,2013-04-17 06:35:00
2:54 AM,42.8,32.0,66,30.29,10.0,ENE,11.5,-,N/A,,Mostly Cloudy,60,2013-04-17 06:54:00
3:15 AM,42.3,32.4,68,30.29,10.0,ENE,6.9,-,N/A,,Overcast,60,2013-04-17 07:15:00
3:34 AM,42.1,32.0,67,30.30,10.0,NE,8.1,-,N/A,,Overcast,50,2013-04-17 07:34:00
3:55 AM,41.9,31.6,67,30.31,10.0,ENE,8.1,-,N/A,,Mostly Cloudy,70,2013-04-17 07:55:00
4:15 AM,41.5,31.5,67,30.32,10.0,ENE,6.9,-,N/A,,Mostly Cloudy,60,2013-04-17 08:15:00
4:34 AM,41.2,31.5,68,30.32,10.0,NE,5.8,-,N/A,,Mostly Cloudy,40,2013-04-17 08:34:00
4:55 AM,40.3,30.9,69,30.32,10.0,ENE,6.9,-,N/A,,Mostly Cloudy,60,2013-04-17 08:55:00
5:14 AM,40.3,31.1,70,30.33,10.0,NE,5.8,-,N/A,,Mostly Cloudy,50,2013-04-17 09:14:00
5:35 AM,40.5,31.3,70,30.32,10.0,ENE,6.9,-,N/A,,Scattered Clouds,60,2013-04-17 09:35:00
5:55 AM,40.1,31.1,70,30.31,10.0,NE,8.1,-,N/A,,Scattered Clouds,50,2013-04-17 09:55:00
6:14 AM,39.6,31.1,72,30.32,10.0,NE,5.8,-,N/A,,Scattered Clouds,50,2013-04-17 10:14:00
6:35 AM,39.2,31.1,73,30.33,10.0,ENE,5.8,-,N/A,,Scattered Clouds,70,2013-04-17 10:35:00
6:55 AM,38.5,30.9,74,30.33,10.0,ENE,6.9,-,N/A,,Scattered Clouds,60,2013-04-17 10:55:00
7:15 AM,38.5,31.1,75,30.33,10.0,ENE,5.8,-,N/A,,Scattered Clouds,60,2013-04-17 11:15:00
7:35 AM,39.0,31.5,74,30.33,10.0,ENE,6.9,-,N/A,,Clear,70,2013-04-17 11:35:00
7:55 AM,40.1,31.8,72,30.33,10.0,ENE,8.1,-,N/A,,Clear,70,2013-04-17 11:55:00
8:15 AM,41.0,31.8,70,30.33,10.0,NE,9.2,-,N/A,,Clear,50,2013-04-17 12:15:00
8:35 AM,42.1,31.5,66,30.33,10.0,ENE,9.2,-,N/A,,Clear,60,2013-04-17 12:35:00
8:55 AM,43.5,31.6,63,30.33,10.0,ENE,9.2,-,N/A,,Clear,60,2013-04-17 12:55:00
9:15 AM,44.1,31.3,61,30.32,10.0,ENE,12.7,-,N/A,,Clear,70,2013-04-17 13:15:00
9:35 AM,45.1,30.9,58,30.31,10.0,NE,9.2,-,N/A,,Clear,50,2013-04-17 13:35:00
10:15 AM,47.3,31.3,54,30.31,10.0,ENE,10.4,-,N/A,,Clear,70,2013-04-17 14:15:00
10:35 AM,48.4,31.5,52,30.32,10.0,East,10.4,-,N/A,,Clear,90,2013-04-17 14:35:00
10:55 AM,48.9,31.3,51,30.31,10.0,ENE,10.4,-,N/A,,Clear,70,2013-04-17 14:55:00
11:15 AM,51.4,32.2,48,30.29,10.0,East,8.1,16.1,N/A,,Clear,100,2013-04-17 15:15:00
11:35 AM,51.4,32.0,47,30.29,10.0,East,10.4,16.1,N/A,,Clear,80,2013-04-17 15:35:00
11:55 AM,52.0,31.6,46,30.31,10.0,ENE,3.5,-,N/A,,Clear,60,2013-04-17 15:55:00
12:15 PM,52.5,32.2,46,30.31,10.0,SSE,9.2,-,N/A,,Clear,150,2013-04-17 16:15:00
12:35 PM,53.2,32.5,45,30.29,10.0,ESE,9.2,-,N/A,,Clear,110,2013-04-17 16:35:00
12:55 PM,54.3,32.9,44,30.28,10.0,East,11.5,17.3,N/A,,Clear,80,2013-04-17 16:55:00
1:14 PM,55.4,34.3,45,30.30,10.0,SSE,8.1,-,N/A,,Clear,150,2013-04-17 17:14:00
1:35 PM,54.9,32.7,43,30.29,10.0,SE,3.5,-,N/A,,Clear,140,2013-04-17 17:35:00
1:55 PM,56.7,33.4,42,30.25,10.0,East,4.6,-,N/A,,Clear,100,2013-04-17 17:55:00
2:14 PM,56.3,33.4,42,30.24,10.0,East,10.4,18.4,N/A,,Scattered Clouds,80,2013-04-17 18:14:00
2:35 PM,57.7,34.2,41,30.22,10.0,East,10.4,17.3,N/A,,Clear,100,2013-04-17 18:35:00
2:55 PM,58.1,34.0,40,30.21,10.0,ESE,10.4,16.1,N/A,,Clear,110,2013-04-17 18:55:00
3:14 PM,58.8,34.0,39,30.19,10.0,East,13.8,21.9,N/A,,Clear,100,2013-04-17 19:14:00
3:35 PM,58.1,34.3,41,30.19,10.0,ESE,13.8,18.4,N/A,,Clear,120,2013-04-17 19:35:00
3:55 PM,56.7,33.4,42,30.21,10.0,East,9.2,18.4,N/A,,Mostly Cloudy,100,2013-04-17 19:55:00
4:35 PM,55.6,35.2,46,30.14,10.0,East,12.7,18.4,N/A,Rain,Light Rain,100,2013-04-17 20:35:00
4:55 PM,53.8,37.0,53,30.18,10.0,SE,15.0,-,N/A,,Overcast,130,2013-04-17 20:55:00
5:15 PM,51.4,39.4,63,30.12,7.0,East,11.5,-,N/A,Rain,Rain,80,2013-04-17 21:15:00
5:35 PM,50.2,40.3,69,30.14,10.0,East,9.2,17.3,N/A,,Overcast,80,2013-04-17 21:35:00
5:54 PM,50.0,40.5,70,30.16,10.0,ENE,3.5,-,N/A,Rain,Light Rain,60,2013-04-17 21:54:00
6:15 PM,49.8,41.5,73,30.12,10.0,East,10.4,-,N/A,,Overcast,90,2013-04-17 22:15:00
6:34 PM,49.8,41.2,72,30.10,10.0,East,12.7,-,N/A,Rain,Light Rain,90,2013-04-17 22:34:00
6:55 PM,49.5,41.0,73,30.11,10.0,East,6.9,-,N/A,Rain,Rain,80,2013-04-17 22:55:00
7:15 PM,48.6,42.6,80,30.11,4.0,East,8.1,-,N/A,Rain,Rain,90,2013-04-17 23:15:00
7:34 PM,47.8,44.1,87,30.16,10.0,NNE,4.6,12.7,N/A,Rain,Light Rain,30,2013-04-17 23:34:00
7:55 PM,47.3,44.8,91,30.15,7.0,NNW,5.8,-,N/A,Rain,Light Rain,340,2013-04-17 23:55:00
8:15 PM,46.9,45.0,93,30.13,7.0,NE,8.1,-,N/A,Rain,Light Rain,50,2013-04-18 00:15:00
8:35 PM,46.0,44.6,95,30.12,1.0,ENE,11.5,-,N/A,Rain,Light Rain,70,2013-04-18 00:35:00
8:55 PM,45.7,44.6,96,30.13,7.0,East,8.1,-,N/A,Rain,Rain,80,2013-04-18 00:55:00
9:15 PM,45.7,44.8,97,30.13,5.0,ESE,6.9,-,N/A,Rain,Rain,110,2013-04-18 01:15:00
9:35 PM,45.5,44.6,97,30.10,3.0,East,9.2,-,N/A,Rain,Light Rain,100,2013-04-18 01:35:00
9:55 PM,45.5,44.4,96,30.10,2.5,East,10.4,-,N/A,Rain,Light Rain,90,2013-04-18 01:55:00
10:15 PM,45.5,44.2,95,30.07,10.0,ESE,18.4,21.9,N/A,Rain,Light Rain,120,2013-04-18 02:15:00
10:55 PM,44.6,43.0,94,30.05,7.0,SE,21.9,33.4,N/A,Rain,Light Rain,140,2013-04-18 02:55:00
11:14 PM,44.1,42.4,94,30.03,7.0,SE,21.9,31.1,N/A,Rain,Rain,130,2013-04-18 03:14:00
11:35 PM,44.1,42.4,94,30.00,10.0,SE,26.5,35.7,N/A,Rain,Light Rain,140,2013-04-18 03:35:00
11:55 PM,44.2,42.8,95,29.98,10.0,SE,21.9,33.4,N/A,Rain,Light Rain,130,2013-04-18 03:55:00